createdAt,value
2022-10-22T00:00:56.695Z,10.80
2022-10-22T00:03:36.719Z,10.71
2022-10-22T00:06:04.591Z,10.63
2022-10-22T00:08:32.618Z,10.40
2022-10-22T00:11:07.435Z,10.19
2022-10-22T00:13:35.448Z,10.21
2022-10-22T00:16:03.430Z,10.13
2022-10-22T00:18:31.502Z,10.11
2022-10-22T00:20:59.315Z,10.19
2022-10-22T00:23:27.296Z,10.29
2022-10-22T00:25:55.611Z,10.31
2022-10-22T00:28:23.659Z,10.49
2022-10-22T00:30:59.383Z,10.57
2022-10-22T00:33:28.396Z,10.62
2022-10-22T00:35:56.584Z,10.51
2022-10-22T00:38:24.660Z,10.39
2022-10-22T00:40:52.901Z,10.56
2022-10-22T00:43:21.015Z,10.60
2022-10-22T00:45:48.891Z,10.41
2022-10-22T00:48:20.538Z,10.49
2022-10-22T00:50:52.060Z,10.56
2022-10-22T00:53:21.277Z,10.73
2022-10-22T00:55:51.206Z,10.62
2022-10-22T00:58:21.347Z,10.52
2022-10-22T01:00:49.648Z,10.46
2022-10-22T01:03:18.319Z,10.51
2022-10-22T01:06:00.091Z,10.55
2022-10-22T01:08:37.189Z,10.68
2022-10-22T01:11:16.429Z,10.68
2022-10-22T01:13:49.475Z,10.80
2022-10-22T01:16:26.149Z,10.89
2022-10-22T01:19:06.402Z,10.91
2022-10-22T01:21:37.680Z,11.03
2022-10-22T01:24:05.831Z,11.10
2022-10-22T01:26:52.905Z,11.09
2022-10-22T01:29:24.724Z,11.05
2022-10-22T01:31:58.810Z,10.91
2022-10-22T01:34:27.793Z,10.94
2022-10-22T01:36:56.807Z,11.11
2022-10-22T01:39:26.083Z,10.93
2022-10-22T01:41:57.361Z,10.81
2022-10-22T01:44:26.266Z,10.94
2022-10-22T01:47:20.647Z,11.07
2022-10-22T01:49:58.408Z,11.10
2022-10-22T01:52:26.405Z,11.17
2022-10-22T01:54:54.203Z,10.89
2022-10-22T01:57:38.342Z,10.60
2022-10-22T02:00:13.901Z,10.58
2022-10-22T02:02:53.556Z,10.77
2022-10-22T02:05:24.924Z,10.85
2022-10-22T02:07:56.189Z,10.78
2022-10-22T02:10:25.057Z,10.71
2022-10-22T02:12:54.867Z,10.76
2022-10-22T02:15:24.790Z,10.56
2022-10-22T02:17:54.597Z,10.29
2022-10-22T02:20:26.066Z,10.25
2022-10-22T02:22:54.420Z,10.30
2022-10-22T02:25:24.642Z,10.11
2022-10-22T02:28:11.968Z,10.16
2022-10-22T02:30:42.694Z,10.07
2022-10-22T02:33:16.875Z,10.02
2022-10-22T02:35:45.696Z,9.78
2022-10-22T02:38:13.984Z,9.76
2022-10-22T02:40:41.958Z,9.91
2022-10-22T02:43:09.849Z,10.03
2022-10-22T02:45:38.194Z,10.15
2022-10-22T02:48:06.445Z,10.17
2022-10-22T02:50:34.477Z,10.30
2022-10-22T02:53:02.323Z,10.39
2022-10-22T02:55:30.298Z,10.36
2022-10-22T02:57:58.328Z,10.27
2022-10-22T03:00:26.710Z,10.14
2022-10-22T03:02:54.623Z,10.17
2022-10-22T03:05:22.965Z,9.93
2022-10-22T03:07:50.799Z,9.75
2022-10-22T03:10:18.682Z,9.93
2022-10-22T03:12:46.728Z,10.01
2022-10-22T03:15:14.854Z,9.85
2022-10-22T03:17:43.081Z,9.83
2022-10-22T03:20:11.375Z,10.01
2022-10-22T03:22:41.174Z,10.07
2022-10-22T03:25:12.301Z,10.15
2022-10-22T03:27:41.255Z,10.22
2022-10-22T03:30:09.697Z,10.13
2022-10-22T03:32:37.774Z,10.22
2022-10-22T03:35:06.345Z,10.29
2022-10-22T03:37:35.111Z,10.26
2022-10-22T03:40:04.920Z,10.17
2022-10-22T03:42:33.048Z,9.88
2022-10-22T03:45:00.899Z,9.80
2022-10-22T03:47:28.698Z,9.80
2022-10-22T03:49:56.515Z,9.90
2022-10-22T03:52:24.378Z,10.03
2022-10-22T03:54:52.377Z,10.11
2022-10-22T03:57:20.515Z,10.15
2022-10-22T03:59:48.486Z,10.12
2022-10-22T04:02:16.865Z,10.10
2022-10-22T04:04:44.834Z,10.13
2022-10-22T04:07:12.802Z,10.12
2022-10-22T04:09:40.669Z,10.26
2022-10-22T04:12:09.676Z,10.41
2022-10-22T04:14:37.535Z,10.40
2022-10-22T04:17:05.499Z,10.20
2022-10-22T04:19:33.463Z,10.19
2022-10-22T04:22:01.513Z,10.16
2022-10-22T04:24:30.458Z,10.13
2022-10-22T04:26:58.391Z,10.15
2022-10-22T04:29:26.416Z,10.15
2022-10-22T04:31:54.430Z,10.15
2022-10-22T04:34:22.241Z,10.18
2022-10-22T04:36:50.551Z,10.11
2022-10-22T04:39:18.393Z,10.08
2022-10-22T04:41:46.575Z,10.03
2022-10-22T04:44:18.121Z,9.83
2022-10-22T04:46:46.448Z,9.73
2022-10-22T04:49:14.504Z,9.66
2022-10-22T04:51:42.298Z,9.69
2022-10-22T04:54:10.337Z,9.67
2022-10-22T04:56:38.309Z,9.63
2022-10-22T04:59:07.625Z,9.72
2022-10-22T05:01:42.716Z,9.85
2022-10-22T05:04:13.710Z,9.93
2022-10-22T05:06:42.022Z,9.83
2022-10-22T05:09:15.296Z,9.46
2022-10-22T05:11:48.831Z,9.22
2022-10-22T05:14:20.461Z,9.33
2022-10-22T05:16:49.513Z,9.50
2022-10-22T05:19:24.283Z,9.56
2022-10-22T05:21:52.804Z,9.57
2022-10-22T05:24:21.284Z,9.79
2022-10-22T05:26:51.044Z,10.13
2022-10-22T05:29:19.030Z,10.46
2022-10-22T05:31:47.344Z,10.38
2022-10-22T05:34:15.714Z,10.20
2022-10-22T05:36:44.015Z,10.27
2022-10-22T05:39:12.472Z,10.38
2022-10-22T05:41:40.747Z,10.38
2022-10-22T05:44:11.607Z,10.45
2022-10-22T05:46:39.872Z,10.68
2022-10-22T05:49:08.240Z,11.06
2022-10-22T05:51:37.533Z,11.24
2022-10-22T05:54:07.755Z,11.09
2022-10-22T05:56:37.260Z,11.05
2022-10-22T05:59:05.386Z,11.10
2022-10-22T06:01:35.454Z,11.44
2022-10-22T06:04:05.534Z,11.55
2022-10-22T06:06:35.290Z,11.79
2022-10-22T06:09:06.067Z,11.91
2022-10-22T06:11:35.247Z,12.04
2022-10-22T06:14:03.847Z,12.67
2022-10-22T06:16:32.135Z,13.76
2022-10-22T06:19:03.851Z,14.83
2022-10-22T06:21:32.621Z,15.55
2022-10-22T06:24:01.711Z,15.76
2022-10-22T06:26:30.281Z,16.81
2022-10-22T06:28:58.560Z,17.53
2022-10-22T06:31:26.842Z,18.07
2022-10-22T06:33:55.282Z,18.59
2022-10-22T06:36:24.412Z,18.99
2022-10-22T06:38:53.334Z,19.05
2022-10-22T06:41:24.219Z,19.34
2022-10-22T06:43:55.973Z,19.77
2022-10-22T06:46:24.817Z,19.52
2022-10-22T06:49:00.236Z,19.57
2022-10-22T06:51:28.595Z,20.39
2022-10-22T06:53:57.472Z,20.72
2022-10-22T06:56:26.738Z,20.41
2022-10-22T06:58:56.183Z,20.74
2022-10-22T07:01:26.283Z,20.88
2022-10-22T07:03:54.587Z,21.29
2022-10-22T07:06:23.379Z,21.40
2022-10-22T07:08:51.574Z,20.70
2022-10-22T07:11:23.921Z,20.35
2022-10-22T07:13:53.631Z,21.22
2022-10-22T07:16:21.646Z,21.51
2022-10-22T07:18:49.773Z,21.68
2022-10-22T07:21:18.971Z,21.73
2022-10-22T07:23:47.178Z,21.05
2022-10-22T07:26:16.036Z,20.71
2022-10-22T07:28:44.191Z,20.53
2022-10-22T07:31:12.998Z,19.89
2022-10-22T07:33:41.359Z,19.51
2022-10-22T07:36:11.494Z,18.65
2022-10-22T07:38:39.464Z,17.53
2022-10-22T07:41:07.640Z,16.65
2022-10-22T07:43:35.927Z,16.12
2022-10-22T07:46:03.979Z,16.13
2022-10-22T07:48:32.246Z,16.06
2022-10-22T07:51:00.122Z,16.02
2022-10-22T07:53:28.091Z,15.99
2022-10-22T07:55:56.919Z,16.01
2022-10-22T07:58:24.917Z,15.82
2022-10-22T08:00:55.531Z,15.72
2022-10-22T08:03:23.858Z,15.86
2022-10-22T08:05:51.927Z,16.05
2022-10-22T08:08:20.255Z,16.19
2022-10-22T08:10:51.150Z,16.17
2022-10-22T08:13:19.315Z,16.16
2022-10-22T08:15:47.474Z,16.35
2022-10-22T08:18:16.883Z,16.42
2022-10-22T08:20:45.063Z,16.59
2022-10-22T08:23:13.029Z,16.71
2022-10-22T08:25:40.894Z,16.73
2022-10-22T08:28:08.697Z,16.75
2022-10-22T08:30:38.701Z,16.89
2022-10-22T08:33:06.849Z,17.17
2022-10-22T08:35:34.920Z,17.27
2022-10-22T08:38:02.889Z,17.61
2022-10-22T08:40:32.758Z,17.90
2022-10-22T08:43:18.186Z,18.24
2022-10-22T08:46:01.303Z,18.51
2022-10-22T08:48:41.875Z,18.64
2022-10-22T08:51:15.500Z,18.97
2022-10-22T08:54:01.472Z,19.35
2022-10-22T08:56:30.546Z,19.58
2022-10-22T08:59:02.584Z,19.21
2022-10-22T09:01:35.814Z,18.62
2022-10-22T09:04:03.999Z,17.72
2022-10-22T09:06:33.694Z,17.58
2022-10-22T09:09:02.779Z,17.63
2022-10-22T09:11:33.318Z,17.24
2022-10-22T09:14:01.856Z,16.56
2022-10-22T09:16:36.105Z,16.48
2022-10-22T09:19:30.404Z,16.99
2022-10-22T09:22:02.669Z,17.35
2022-10-22T09:24:34.739Z,17.55
2022-10-22T09:27:10.345Z,17.56
2022-10-22T09:29:38.353Z,16.85
2022-10-22T09:32:06.291Z,16.75
2022-10-22T09:34:34.125Z,17.17
2022-10-22T09:37:08.917Z,17.67
2022-10-22T09:39:38.632Z,18.19
2022-10-22T09:42:07.094Z,18.55
2022-10-22T09:44:36.483Z,18.71
2022-10-22T09:47:07.962Z,18.92
2022-10-22T09:49:36.539Z,19.22
2022-10-22T09:52:24.273Z,19.49
2022-10-22T09:54:52.605Z,19.76
2022-10-22T09:57:25.031Z,19.67
2022-10-22T09:59:55.138Z,19.58
2022-10-22T10:02:38.184Z,19.41
2022-10-22T10:05:07.547Z,19.06
2022-10-22T10:07:36.295Z,18.92
2022-10-22T10:10:16.943Z,19.04
2022-10-22T10:12:49.933Z,19.14
2022-10-22T10:15:27.127Z,19.31
2022-10-22T10:18:01.491Z,19.36
2022-10-22T10:20:49.733Z,19.55
2022-10-22T10:23:36.532Z,19.75
2022-10-22T10:26:16.231Z,19.89
2022-10-22T10:28:44.377Z,19.76
2022-10-22T10:31:12.411Z,19.72
2022-10-22T10:34:03.937Z,19.61
2022-10-22T10:36:40.233Z,19.70
2022-10-22T10:39:10.999Z,19.77
2022-10-22T10:41:57.675Z,19.85
2022-10-22T10:44:25.539Z,19.91
2022-10-22T10:46:56.146Z,20.06
2022-10-22T10:49:28.313Z,20.28
2022-10-22T10:52:11.434Z,20.46
2022-10-22T10:54:42.053Z,20.59
2022-10-22T10:57:32.970Z,20.68
2022-10-22T11:00:20.256Z,20.75
2022-10-22T11:03:07.343Z,20.93
2022-10-22T11:05:35.160Z,20.96
2022-10-22T11:08:06.729Z,21.03
2022-10-22T11:10:43.205Z,20.83
2022-10-22T11:13:29.934Z,20.78
2022-10-22T11:16:16.518Z,20.95
2022-10-22T11:19:04.680Z,21.01
2022-10-22T11:21:40.034Z,20.91
2022-10-22T11:24:07.894Z,20.74
2022-10-22T11:26:39.284Z,20.76
2022-10-22T11:29:11.280Z,20.67
2022-10-22T11:31:40.258Z,20.68
2022-10-22T11:34:32.574Z,20.71
2022-10-22T11:37:02.201Z,20.69
2022-10-22T11:39:30.904Z,20.68
2022-10-22T11:41:59.413Z,20.77
2022-10-22T11:44:30.366Z,20.87
2022-10-22T11:47:08.767Z,20.92
2022-10-22T11:49:44.307Z,21.01
2022-10-22T11:52:30.606Z,21.16
2022-10-22T11:55:02.571Z,21.22
2022-10-22T11:57:38.258Z,21.25
2022-10-22T12:00:11.895Z,21.24
2022-10-22T12:02:46.238Z,21.12
2022-10-22T12:05:24.090Z,20.71
2022-10-22T12:08:01.701Z,20.53
2022-10-22T12:10:48.179Z,20.41
2022-10-22T12:13:27.983Z,20.07
2022-10-22T12:15:58.137Z,19.79
2022-10-22T12:18:28.836Z,19.71
2022-10-22T12:20:56.795Z,19.70
2022-10-22T12:23:30.918Z,19.66
2022-10-22T12:25:58.780Z,19.71
2022-10-22T12:28:26.958Z,19.78
2022-10-22T12:30:55.115Z,19.73
2022-10-22T12:33:23.697Z,19.77
2022-10-22T12:35:55.676Z,19.83
2022-10-22T12:38:24.352Z,19.94
2022-10-22T12:40:55.301Z,20.01
2022-10-22T12:43:25.630Z,19.67
2022-10-22T12:45:54.307Z,19.62
2022-10-22T12:48:23.752Z,19.76
2022-10-22T12:50:53.047Z,19.88
2022-10-22T12:53:32.151Z,19.97
2022-10-22T12:56:01.635Z,20.07
2022-10-22T12:58:33.760Z,20.16
2022-10-22T13:01:02.370Z,20.22
2022-10-22T13:03:35.587Z,20.21
2022-10-22T13:06:32.953Z,20.22
2022-10-22T13:09:13.959Z,20.16
2022-10-22T13:11:49.703Z,20.14
2022-10-22T13:14:29.007Z,20.15
2022-10-22T13:17:11.527Z,20.18
2022-10-22T13:19:39.387Z,20.21
2022-10-22T13:22:26.932Z,20.19
2022-10-22T13:27:29.378Z,20.02
2022-10-22T13:30:00.651Z,20.06
2022-10-22T13:32:31.080Z,20.07
2022-10-22T13:35:03.034Z,19.99
2022-10-22T13:37:32.615Z,19.86
2022-10-22T13:40:00.387Z,19.78
2022-10-22T13:42:28.490Z,19.76
2022-10-22T13:44:56.339Z,19.73
2022-10-22T13:47:26.110Z,19.65
2022-10-22T13:52:30.157Z,19.45
2022-10-22T13:54:58.174Z,19.41
2022-10-22T13:57:26.219Z,19.37
2022-10-22T13:59:54.364Z,19.30
2022-10-22T14:02:24.821Z,19.25
2022-10-22T14:04:52.728Z,19.27
2022-10-22T14:07:21.493Z,19.24
2022-10-22T14:09:49.516Z,19.19
2022-10-22T14:12:17.642Z,19.09
2022-10-22T14:14:45.550Z,18.97
2022-10-22T14:17:16.845Z,18.79
2022-10-22T14:19:46.129Z,18.65
2022-10-22T14:22:17.880Z,18.55
2022-10-22T14:24:46.264Z,18.48
2022-10-22T14:27:15.796Z,18.46
2022-10-22T14:29:43.849Z,18.40
2022-10-22T14:32:17.346Z,18.28
2022-10-22T14:34:47.125Z,18.20
2022-10-22T14:37:17.230Z,18.17
2022-10-22T14:39:52.736Z,18.21
2022-10-22T14:42:20.954Z,18.25
2022-10-22T14:44:49.048Z,18.27
2022-10-22T14:47:17.264Z,18.23
2022-10-22T14:49:45.098Z,18.02
2022-10-22T14:52:14.941Z,17.90
2022-10-22T14:54:43.290Z,17.88
2022-10-22T14:57:11.676Z,17.89
2022-10-22T14:59:40.116Z,17.88
2022-10-22T15:02:11.010Z,17.86
2022-10-22T15:04:39.741Z,17.89
2022-10-22T15:07:07.843Z,17.92
2022-10-22T15:09:35.716Z,17.91
2022-10-22T15:12:04.051Z,17.86
2022-10-22T15:14:31.953Z,17.68
2022-10-22T15:17:00.064Z,17.72
2022-10-22T15:19:29.492Z,17.81
2022-10-22T15:21:57.503Z,17.87
2022-10-22T15:24:25.581Z,17.89
2022-10-22T15:26:54.163Z,17.90
2022-10-22T15:29:21.966Z,17.92
2022-10-22T15:31:51.422Z,17.90
2022-10-22T15:34:23.881Z,17.89
2022-10-22T15:36:54.068Z,17.92
2022-10-22T15:39:22.863Z,17.90
2022-10-22T15:41:51.805Z,17.85
2022-10-22T15:44:24.948Z,17.78
2022-10-22T15:46:55.018Z,17.72
2022-10-22T15:49:27.691Z,17.69
2022-10-22T15:51:56.127Z,17.62
2022-10-22T15:54:28.838Z,17.53
2022-10-22T15:56:58.279Z,17.44
2022-10-22T15:59:26.229Z,17.38
2022-10-22T16:01:54.278Z,17.29
2022-10-22T16:04:22.162Z,17.34
2022-10-22T16:06:52.805Z,17.40
2022-10-22T16:09:25.254Z,17.42
2022-10-22T16:14:28.779Z,17.48
2022-10-22T16:16:56.941Z,17.45
2022-10-22T16:19:25.059Z,17.35
2022-10-22T16:21:54.934Z,17.27
2022-10-22T16:24:23.005Z,17.29
2022-10-22T16:26:52.820Z,17.38
2022-10-22T16:29:20.776Z,17.39
2022-10-22T16:31:48.770Z,17.35
2022-10-22T16:34:16.711Z,17.40
2022-10-22T16:36:44.723Z,17.52
2022-10-22T16:39:12.651Z,17.61
2022-10-22T16:41:40.541Z,17.65
2022-10-22T16:44:09.968Z,17.60
2022-10-22T16:46:38.730Z,17.59
2022-10-22T16:49:07.349Z,17.64
2022-10-22T16:51:35.665Z,17.61
2022-10-22T16:54:05.690Z,17.59
2022-10-22T16:56:36.797Z,17.67
2022-10-22T16:59:04.604Z,17.69
2022-10-22T17:01:36.763Z,17.73
2022-10-22T17:04:07.847Z,17.68
2022-10-22T17:06:36.076Z,17.63
2022-10-22T17:09:04.537Z,17.61
2022-10-22T17:11:36.346Z,17.61
2022-10-22T17:14:06.534Z,17.58
2022-10-22T17:16:34.434Z,17.57
2022-10-22T17:19:03.448Z,17.50
2022-10-22T17:21:31.277Z,17.46
2022-10-22T17:23:59.148Z,17.41
2022-10-22T17:26:27.263Z,17.40
2022-10-22T17:28:55.484Z,17.45
2022-10-22T17:31:28.153Z,17.50
2022-10-22T17:33:56.940Z,17.58
2022-10-22T17:36:25.215Z,17.64
2022-10-22T17:38:54.435Z,17.63
2022-10-22T17:41:23.916Z,17.60
2022-10-22T17:43:55.884Z,17.52
2022-10-22T17:46:25.270Z,17.42
2022-10-22T17:48:55.234Z,17.41
2022-10-22T17:51:24.062Z,17.20
2022-10-22T17:53:52.699Z,17.10
2022-10-22T17:56:21.983Z,17.08
2022-10-22T17:58:50.745Z,17.10
2022-10-22T18:01:18.758Z,17.06
2022-10-22T18:03:46.905Z,16.93
2022-10-22T18:06:15.483Z,16.86
2022-10-22T18:08:43.983Z,16.86
2022-10-22T18:11:13.574Z,16.91
2022-10-22T18:13:41.547Z,16.82
2022-10-22T18:16:09.810Z,16.80
2022-10-22T18:18:37.853Z,16.90
2022-10-22T18:21:06.160Z,16.94
2022-10-22T18:23:34.430Z,16.93
2022-10-22T18:26:04.627Z,17.02
2022-10-22T18:28:32.723Z,17.01
2022-10-22T18:31:05.035Z,17.06
2022-10-22T18:33:33.067Z,17.16
2022-10-22T18:36:08.840Z,17.17
2022-10-22T18:38:40.145Z,17.04
2022-10-22T18:41:09.651Z,16.67
2022-10-22T18:43:37.620Z,16.62
2022-10-22T18:46:08.984Z,16.68
2022-10-22T18:48:37.046Z,16.66
2022-10-22T18:51:06.295Z,16.65
2022-10-22T18:53:35.290Z,16.67
2022-10-22T18:56:09.883Z,16.73
2022-10-22T18:58:41.484Z,16.73
2022-10-22T19:01:13.355Z,16.75
2022-10-22T19:03:42.277Z,16.77
2022-10-22T19:06:10.657Z,16.73
2022-10-22T19:08:38.512Z,16.68
2022-10-22T19:11:10.962Z,16.65
2022-10-22T19:13:39.203Z,16.72
2022-10-22T19:16:08.368Z,16.80
2022-10-22T19:18:36.746Z,16.80
2022-10-22T19:21:05.131Z,16.84
2022-10-22T19:23:33.313Z,16.89
2022-10-22T19:26:02.603Z,16.91
2022-10-22T19:28:31.055Z,16.85
2022-10-22T19:30:59.660Z,16.88
2022-10-22T19:33:28.114Z,16.79
2022-10-22T19:35:56.132Z,16.66
2022-10-22T19:38:29.655Z,16.63
2022-10-22T19:40:57.752Z,16.69
2022-10-22T19:43:26.567Z,16.66
2022-10-22T19:45:54.948Z,16.60
2022-10-22T19:48:23.001Z,16.43
2022-10-22T19:50:51.391Z,16.42
2022-10-22T19:53:19.409Z,16.40
2022-10-22T19:55:47.327Z,16.30
2022-10-22T19:58:16.122Z,16.23
2022-10-22T20:00:44.184Z,16.06
2022-10-22T20:03:14.709Z,15.80
2022-10-22T20:05:42.927Z,15.68
2022-10-22T20:08:11.337Z,15.60
2022-10-22T20:10:39.675Z,15.49
2022-10-22T20:13:07.921Z,15.22
2022-10-22T20:15:36.357Z,15.17
2022-10-22T20:18:04.577Z,15.29
2022-10-22T20:20:32.644Z,15.32
2022-10-22T20:23:00.499Z,15.26
2022-10-22T20:25:28.391Z,15.27
2022-10-22T20:27:56.218Z,15.32
2022-10-22T20:30:24.215Z,15.45
2022-10-22T20:32:52.075Z,15.49
2022-10-22T20:35:19.942Z,15.53
2022-10-22T20:37:47.733Z,15.51
2022-10-22T20:40:15.779Z,15.44
2022-10-22T20:42:44.287Z,15.52
2022-10-22T20:45:12.624Z,15.54
2022-10-22T20:47:51.345Z,15.39
2022-10-22T20:50:29.800Z,15.58
2022-10-22T20:52:57.745Z,15.72
2022-10-22T20:55:26.126Z,15.76
2022-10-22T20:57:54.266Z,15.84
2022-10-22T21:00:22.259Z,15.91
2022-10-22T21:02:50.224Z,15.92
2022-10-22T21:05:18.197Z,15.93
2022-10-22T21:07:46.099Z,15.97
2022-10-22T21:10:14.029Z,16.01
2022-10-22T21:12:42.821Z,16.07
2022-10-22T21:15:12.762Z,16.08
2022-10-22T21:17:40.988Z,16.01
2022-10-22T21:20:08.866Z,15.93
2022-10-22T21:22:36.890Z,15.97
2022-10-22T21:25:05.431Z,15.86
2022-10-22T21:27:33.633Z,15.77
2022-10-22T21:30:02.077Z,15.62
2022-10-22T21:32:30.265Z,15.57
2022-10-22T21:34:58.322Z,15.52
2022-10-22T21:37:30.133Z,15.50
2022-10-22T21:39:58.380Z,15.39
2022-10-22T21:42:26.410Z,15.34
2022-10-22T21:44:54.396Z,15.34
2022-10-22T21:47:23.699Z,15.33
2022-10-22T21:49:51.665Z,15.30
2022-10-22T21:52:19.936Z,15.30
2022-10-22T21:54:47.908Z,15.06
2022-10-22T21:57:15.709Z,14.92
2022-10-22T21:59:43.534Z,14.83
2022-10-22T22:02:11.497Z,14.80
2022-10-22T22:04:39.960Z,14.76
2022-10-22T22:07:08.003Z,14.85
2022-10-22T22:09:35.929Z,14.85
2022-10-22T22:12:03.898Z,14.97
2022-10-22T22:14:33.024Z,15.09
2022-10-22T22:17:01.021Z,15.07
2022-10-22T22:19:28.959Z,15.09
2022-10-22T22:21:56.791Z,15.17
2022-10-22T22:24:24.778Z,15.31
2022-10-22T22:26:53.050Z,15.40
2022-10-22T22:29:21.016Z,15.41
2022-10-22T22:31:48.968Z,15.46
2022-10-22T22:34:17.605Z,15.60
2022-10-22T22:36:47.080Z,15.69
2022-10-22T22:39:17.049Z,15.62
2022-10-22T22:41:45.555Z,15.67
2022-10-22T22:44:13.798Z,15.70
2022-10-22T22:46:42.376Z,15.61
2022-10-22T22:49:10.556Z,15.56
2022-10-22T22:51:38.652Z,15.63
2022-10-22T22:54:06.584Z,15.70
2022-10-22T22:56:34.866Z,15.70
2022-10-22T22:59:04.069Z,15.63
2022-10-22T23:01:36.046Z,15.53
2022-10-22T23:04:06.404Z,15.42
2022-10-22T23:06:36.893Z,15.35
2022-10-22T23:09:06.318Z,15.35
2022-10-22T23:11:34.590Z,15.45
2022-10-22T23:14:04.295Z,15.59
2022-10-22T23:16:33.707Z,15.62
2022-10-22T23:19:01.987Z,15.70
2022-10-22T23:21:31.477Z,15.76
2022-10-22T23:24:00.777Z,15.78
2022-10-22T23:26:33.317Z,15.71
2022-10-22T23:29:02.146Z,15.51
2022-10-22T23:31:30.374Z,15.13
2022-10-22T23:33:58.795Z,14.96
2022-10-22T23:36:27.424Z,15.04
2022-10-22T23:38:56.060Z,15.12
2022-10-22T23:41:23.924Z,15.06
2022-10-22T23:43:51.896Z,15.09
2022-10-22T23:46:19.962Z,15.24
2022-10-22T23:48:47.913Z,15.35
2022-10-22T23:51:16.444Z,15.37
2022-10-22T23:53:45.137Z,15.35
2022-10-22T23:56:18.276Z,15.37
2022-10-22T23:58:49.286Z,15.38
